sensor_id;sensor_type;location;lat;lon;timestamp;temperature;humidity
16066;DHT22;8137;48.952;8.970;2023-04-25T00:00:22;8.60;99.90
16066;DHT22;8137;48.952;8.970;2023-04-25T00:02:47;8.60;99.90
16066;DHT22;8137;48.952;8.970;2023-04-25T00:05:13;8.60;99.90
16066;DHT22;8137;48.952;8.970;2023-04-25T00:07:40;8.50;99.90
16066;DHT22;8137;48.952;8.970;2023-04-25T00:10:08;8.50;99.90
16066;DHT22;8137;48.952;8.970;2023-04-25T00:12:34;8.50;99.90
16066;DHT22;8137;48.952;8.970;2023-04-25T00:15:01;8.50;99.90
16066;DHT22;8137;48.952;8.970;2023-04-25T00:17:27;8.50;99.90
16066;DHT22;8137;48.952;8.970;2023-04-25T00:19:52;8.50;99.90
16066;DHT22;8137;48.952;8.970;2023-04-25T00:22:18;8.40;99.90
16066;DHT22;8137;48.952;8.970;2023-04-25T00:24:44;8.30;99.90
16066;DHT22;8137;48.952;8.970;2023-04-25T00:27:10;8.40;99.90
16066;DHT22;8137;48.952;8.970;2023-04-25T00:29:36;8.40;99.90
16066;DHT22;8137;48.952;8.970;2023-04-25T00:32:01;8.30;99.90
16066;DHT22;8137;48.952;8.970;2023-04-25T00:34:27;8.20;99.90
16066;DHT22;8137;48.952;8.970;2023-04-25T00:36:53;8.10;99.90
16066;DHT22;8137;48.952;8.970;2023-04-25T00:39:18;8.10;99.90
16066;DHT22;8137;48.952;8.970;2023-04-25T00:41:45;8.10;99.90
16066;DHT22;8137;48.952;8.970;2023-04-25T00:44:11;8.00;99.90
16066;DHT22;8137;48.952;8.970;2023-04-25T00:46:38;8.00;99.90
16066;DHT22;8137;48.952;8.970;2023-04-25T00:49:04;8.00;99.90
16066;DHT22;8137;48.952;8.970;2023-04-25T00:51:30;8.00;99.90
16066;DHT22;8137;48.952;8.970;2023-04-25T00:53:58;8.00;99.90
16066;DHT22;8137;48.952;8.970;2023-04-25T00:56:24;8.00;99.90
16066;DHT22;8137;48.952;8.970;2023-04-25T00:58:53;8.10;99.90
16066;DHT22;8137;48.952;8.970;2023-04-25T01:01:20;8.10;99.90
16066;DHT22;8137;48.952;8.970;2023-04-25T01:03:46;8.10;99.90
16066;DHT22;8137;48.952;8.970;2023-04-25T01:06:12;8.20;99.90
16066;DHT22;8137;48.952;8.970;2023-04-25T01:08:38;8.20;99.90
16066;DHT22;8137;48.952;8.970;2023-04-25T01:11:05;8.20;99.90
16066;DHT22;8137;48.952;8.970;2023-04-25T01:13:30;8.20;99.90
16066;DHT22;8137;48.952;8.970;2023-04-25T01:15:57;8.20;99.90
16066;DHT22;8137;48.952;8.970;2023-04-25T01:18:23;8.20;99.90
16066;DHT22;8137;48.952;8.970;2023-04-25T01:20:52;8.10;99.90
16066;DHT22;8137;48.952;8.970;2023-04-25T01:23:19;8.00;99.90
16066;DHT22;8137;48.952;8.970;2023-04-25T01:25:45;8.00;99.90
16066;DHT22;8137;48.952;8.970;2023-04-25T01:28:11;7.90;99.90
16066;DHT22;8137;48.952;8.970;2023-04-25T01:30:37;7.90;99.90
16066;DHT22;8137;48.952;8.970;2023-04-25T01:33:04;7.80;99.90
16066;DHT22;8137;48.952;8.970;2023-04-25T01:35:31;7.80;99.90
16066;DHT22;8137;48.952;8.970;2023-04-25T01:37:57;7.80;99.90
16066;DHT22;8137;48.952;8.970;2023-04-25T01:40:24;7.70;99.90
16066;DHT22;8137;48.952;8.970;2023-04-25T01:42:50;7.70;99.90
16066;DHT22;8137;48.952;8.970;2023-04-25T01:45:17;7.70;99.90
16066;DHT22;8137;48.952;8.970;2023-04-25T01:47:43;7.70;99.90
16066;DHT22;8137;48.952;8.970;2023-04-25T01:50:14;7.70;99.90
16066;DHT22;8137;48.952;8.970;2023-04-25T01:52:40;7.70;99.90
16066;DHT22;8137;48.952;8.970;2023-04-25T01:55:06;7.80;99.90
16066;DHT22;8137;48.952;8.970;2023-04-25T01:57:32;7.80;99.90
16066;DHT22;8137;48.952;8.970;2023-04-25T02:00:00;7.80;99.90
16066;DHT22;8137;48.952;8.970;2023-04-25T02:02:26;7.80;99.90
16066;DHT22;8137;48.952;8.970;2023-04-25T02:04:52;7.90;99.90
16066;DHT22;8137;48.952;8.970;2023-04-25T02:07:17;7.90;99.90
16066;DHT22;8137;48.952;8.970;2023-04-25T02:09:43;7.90;99.90
16066;DHT22;8137;48.952;8.970;2023-04-25T02:12:10;7.90;99.90
16066;DHT22;8137;48.952;8.970;2023-04-25T02:14:35;7.90;99.90
16066;DHT22;8137;48.952;8.970;2023-04-25T02:17:01;7.90;99.90
16066;DHT22;8137;48.952;8.970;2023-04-25T02:19:27;7.90;99.90
16066;DHT22;8137;48.952;8.970;2023-04-25T02:21:52;8.00;99.90
16066;DHT22;8137;48.952;8.970;2023-04-25T02:24:18;8.00;99.90
16066;DHT22;8137;48.952;8.970;2023-04-25T02:26:43;8.00;99.90
16066;DHT22;8137;48.952;8.970;2023-04-25T02:29:10;8.10;99.90
16066;DHT22;8137;48.952;8.970;2023-04-25T02:31:35;8.10;99.90
16066;DHT22;8137;48.952;8.970;2023-04-25T02:34:01;8.10;99.90
16066;DHT22;8137;48.952;8.970;2023-04-25T02:36:26;8.10;99.90
16066;DHT22;8137;48.952;8.970;2023-04-25T02:38:53;8.10;99.90
16066;DHT22;8137;48.952;8.970;2023-04-25T02:41:18;8.10;99.90
16066;DHT22;8137;48.952;8.970;2023-04-25T02:43:44;8.10;99.90
16066;DHT22;8137;48.952;8.970;2023-04-25T02:46:09;8.10;99.90
16066;DHT22;8137;48.952;8.970;2023-04-25T02:48:35;8.10;99.90
16066;DHT22;8137;48.952;8.970;2023-04-25T02:51:00;8.10;99.90
16066;DHT22;8137;48.952;8.970;2023-04-25T02:53:26;8.10;99.90
16066;DHT22;8137;48.952;8.970;2023-04-25T02:55:51;8.10;99.90
16066;DHT22;8137;48.952;8.970;2023-04-25T02:58:18;8.10;99.90
16066;DHT22;8137;48.952;8.970;2023-04-25T03:00:43;8.00;99.90
16066;DHT22;8137;48.952;8.970;2023-04-25T03:03:09;7.90;99.90
16066;DHT22;8137;48.952;8.970;2023-04-25T03:05:34;7.80;99.90
16066;DHT22;8137;48.952;8.970;2023-04-25T03:08:00;7.80;99.90
16066;DHT22;8137;48.952;8.970;2023-04-25T03:10:26;7.70;99.90
16066;DHT22;8137;48.952;8.970;2023-04-25T03:12:51;7.80;99.90
16066;DHT22;8137;48.952;8.970;2023-04-25T03:15:17;7.80;99.90
16066;DHT22;8137;48.952;8.970;2023-04-25T03:17:42;7.80;99.90
16066;DHT22;8137;48.952;8.970;2023-04-25T03:20:09;7.80;99.90
16066;DHT22;8137;48.952;8.970;2023-04-25T03:22:34;7.80;99.90
16066;DHT22;8137;48.952;8.970;2023-04-25T03:25:00;7.90;99.90
16066;DHT22;8137;48.952;8.970;2023-04-25T03:27:25;7.90;99.90
16066;DHT22;8137;48.952;8.970;2023-04-25T03:29:51;7.90;99.90
16066;DHT22;8137;48.952;8.970;2023-04-25T03:32:17;7.90;99.90
16066;DHT22;8137;48.952;8.970;2023-04-25T03:34:42;7.90;99.90
16066;DHT22;8137;48.952;8.970;2023-04-25T03:37:08;7.90;99.90
16066;DHT22;8137;48.952;8.970;2023-04-25T03:39:33;7.90;99.90
16066;DHT22;8137;48.952;8.970;2023-04-25T03:41:59;7.90;99.90
16066;DHT22;8137;48.952;8.970;2023-04-25T03:44:25;7.90;99.90
16066;DHT22;8137;48.952;8.970;2023-04-25T03:46:50;7.90;99.90
16066;DHT22;8137;48.952;8.970;2023-04-25T03:49:16;7.90;99.90
16066;DHT22;8137;48.952;8.970;2023-04-25T03:51:42;7.90;99.90
16066;DHT22;8137;48.952;8.970;2023-04-25T03:54:07;7.90;99.90
16066;DHT22;8137;48.952;8.970;2023-04-25T03:56:33;7.90;99.90
16066;DHT22;8137;48.952;8.970;2023-04-25T03:58:58;7.90;99.90
16066;DHT22;8137;48.952;8.970;2023-04-25T04:01:24;7.80;99.90
16066;DHT22;8137;48.952;8.970;2023-04-25T04:03:50;7.70;99.90
16066;DHT22;8137;48.952;8.970;2023-04-25T04:06:16;7.70;99.90
16066;DHT22;8137;48.952;8.970;2023-04-25T04:08:42;7.70;99.90
16066;DHT22;8137;48.952;8.970;2023-04-25T04:11:08;7.70;99.90
16066;DHT22;8137;48.952;8.970;2023-04-25T04:13:33;7.60;99.90
16066;DHT22;8137;48.952;8.970;2023-04-25T04:15:59;7.70;99.90
16066;DHT22;8137;48.952;8.970;2023-04-25T04:18:24;7.70;99.90
16066;DHT22;8137;48.952;8.970;2023-04-25T04:20:50;7.70;99.90
16066;DHT22;8137;48.952;8.970;2023-04-25T04:23:16;7.70;99.90
16066;DHT22;8137;48.952;8.970;2023-04-25T04:25:41;7.70;99.90
16066;DHT22;8137;48.952;8.970;2023-04-25T04:28:07;7.70;99.90
16066;DHT22;8137;48.952;8.970;2023-04-25T04:30:33;7.60;99.90
16066;DHT22;8137;48.952;8.970;2023-04-25T04:33:01;7.60;99.90
16066;DHT22;8137;48.952;8.970;2023-04-25T04:35:27;7.60;99.90
16066;DHT22;8137;48.952;8.970;2023-04-25T04:37:53;7.60;99.90
16066;DHT22;8137;48.952;8.970;2023-04-25T04:40:19;7.70;99.90
16066;DHT22;8137;48.952;8.970;2023-04-25T04:42:45;7.70;99.90
16066;DHT22;8137;48.952;8.970;2023-04-25T04:45:11;7.70;99.90
16066;DHT22;8137;48.952;8.970;2023-04-25T04:47:38;7.80;99.90
16066;DHT22;8137;48.952;8.970;2023-04-25T04:50:08;7.90;99.90
16066;DHT22;8137;48.952;8.970;2023-04-25T04:52:35;7.90;99.90
16066;DHT22;8137;48.952;8.970;2023-04-25T04:55:02;7.90;99.90
16066;DHT22;8137;48.952;8.970;2023-04-25T04:57:28;7.90;99.90
16066;DHT22;8137;48.952;8.970;2023-04-25T04:59:54;8.00;99.90
16066;DHT22;8137;48.952;8.970;2023-04-25T05:02:19;8.00;99.90
16066;DHT22;8137;48.952;8.970;2023-04-25T05:04:45;8.00;99.90
16066;DHT22;8137;48.952;8.970;2023-04-25T05:07:11;8.10;99.90
16066;DHT22;8137;48.952;8.970;2023-04-25T05:09:37;8.10;99.90
16066;DHT22;8137;48.952;8.970;2023-04-25T05:12:02;8.10;99.90
16066;DHT22;8137;48.952;8.970;2023-04-25T05:14:28;8.10;99.90
16066;DHT22;8137;48.952;8.970;2023-04-25T05:16:53;8.10;99.90
16066;DHT22;8137;48.952;8.970;2023-04-25T05:19:19;8.20;99.90
16066;DHT22;8137;48.952;8.970;2023-04-25T05:21:45;8.20;99.90
16066;DHT22;8137;48.952;8.970;2023-04-25T05:24:10;8.30;99.90
16066;DHT22;8137;48.952;8.970;2023-04-25T05:26:37;8.40;99.90
16066;DHT22;8137;48.952;8.970;2023-04-25T05:29:02;8.50;99.90
16066;DHT22;8137;48.952;8.970;2023-04-25T05:31:28;8.60;99.90
16066;DHT22;8137;48.952;8.970;2023-04-25T05:33:54;8.50;99.90
16066;DHT22;8137;48.952;8.970;2023-04-25T05:36:19;8.50;99.90
16066;DHT22;8137;48.952;8.970;2023-04-25T05:38:45;8.50;99.90
16066;DHT22;8137;48.952;8.970;2023-04-25T05:41:11;8.50;99.90
16066;DHT22;8137;48.952;8.970;2023-04-25T05:43:37;8.50;99.90
16066;DHT22;8137;48.952;8.970;2023-04-25T05:46:02;8.60;99.90
16066;DHT22;8137;48.952;8.970;2023-04-25T05:48:28;8.70;99.90
16066;DHT22;8137;48.952;8.970;2023-04-25T05:50:53;8.90;99.90
16066;DHT22;8137;48.952;8.970;2023-04-25T05:53:20;9.10;99.90
16066;DHT22;8137;48.952;8.970;2023-04-25T05:55:47;9.20;99.90
16066;DHT22;8137;48.952;8.970;2023-04-25T05:58:12;9.40;99.90
16066;DHT22;8137;48.952;8.970;2023-04-25T06:00:38;9.60;99.90
16066;DHT22;8137;48.952;8.970;2023-04-25T06:03:04;9.70;99.90
16066;DHT22;8137;48.952;8.970;2023-04-25T06:05:29;9.80;99.90
16066;DHT22;8137;48.952;8.970;2023-04-25T06:07:55;10.00;99.90
16066;DHT22;8137;48.952;8.970;2023-04-25T06:10:21;10.10;99.90
16066;DHT22;8137;48.952;8.970;2023-04-25T06:12:46;10.20;99.90
16066;DHT22;8137;48.952;8.970;2023-04-25T06:15:12;10.30;99.90
16066;DHT22;8137;48.952;8.970;2023-04-25T06:17:37;10.40;99.90
16066;DHT22;8137;48.952;8.970;2023-04-25T06:20:03;10.50;99.90
16066;DHT22;8137;48.952;8.970;2023-04-25T06:22:29;10.60;99.90
16066;DHT22;8137;48.952;8.970;2023-04-25T06:24:55;10.90;99.90
16066;DHT22;8137;48.952;8.970;2023-04-25T06:27:24;11.00;99.90
16066;DHT22;8137;48.952;8.970;2023-04-25T06:29:49;11.30;99.90
16066;DHT22;8137;48.952;8.970;2023-04-25T06:32:15;11.50;99.90
16066;DHT22;8137;48.952;8.970;2023-04-25T06:34:41;11.60;99.90
16066;DHT22;8137;48.952;8.970;2023-04-25T06:37:06;11.70;99.90
16066;DHT22;8137;48.952;8.970;2023-04-25T06:39:32;11.50;99.90
16066;DHT22;8137;48.952;8.970;2023-04-25T06:41:57;11.30;99.90
16066;DHT22;8137;48.952;8.970;2023-04-25T06:44:23;11.00;99.90
16066;DHT22;8137;48.952;8.970;2023-04-25T06:46:49;10.90;99.90
16066;DHT22;8137;48.952;8.970;2023-04-25T06:49:15;10.70;99.90
16066;DHT22;8137;48.952;8.970;2023-04-25T06:51:41;10.70;99.90
16066;DHT22;8137;48.952;8.970;2023-04-25T06:54:06;10.50;99.90
16066;DHT22;8137;48.952;8.970;2023-04-25T06:56:32;10.40;99.90
16066;DHT22;8137;48.952;8.970;2023-04-25T06:58:57;10.40;99.90
16066;DHT22;8137;48.952;8.970;2023-04-25T07:01:23;10.40;99.90
16066;DHT22;8137;48.952;8.970;2023-04-25T07:03:49;10.40;99.90
16066;DHT22;8137;48.952;8.970;2023-04-25T07:06:14;10.20;99.90
16066;DHT22;8137;48.952;8.970;2023-04-25T07:08:40;10.10;99.90
16066;DHT22;8137;48.952;8.970;2023-04-25T07:11:05;10.00;99.90
16066;DHT22;8137;48.952;8.970;2023-04-25T07:13:31;9.90;99.90
16066;DHT22;8137;48.952;8.970;2023-04-25T07:15:57;9.80;99.90
16066;DHT22;8137;48.952;8.970;2023-04-25T07:18:22;9.60;99.90
16066;DHT22;8137;48.952;8.970;2023-04-25T07:20:48;9.50;99.90
16066;DHT22;8137;48.952;8.970;2023-04-25T07:23:13;9.40;99.90
16066;DHT22;8137;48.952;8.970;2023-04-25T07:25:39;9.30;99.90
16066;DHT22;8137;48.952;8.970;2023-04-25T07:28:05;9.30;99.90
16066;DHT22;8137;48.952;8.970;2023-04-25T07:30:31;9.20;99.90
16066;DHT22;8137;48.952;8.970;2023-04-25T07:32:56;9.20;99.90
16066;DHT22;8137;48.952;8.970;2023-04-25T07:35:22;9.20;99.90
16066;DHT22;8137;48.952;8.970;2023-04-25T07:37:47;9.30;99.90
16066;DHT22;8137;48.952;8.970;2023-04-25T07:40:13;9.30;99.90
16066;DHT22;8137;48.952;8.970;2023-04-25T07:42:41;9.40;99.90
16066;DHT22;8137;48.952;8.970;2023-04-25T07:45:07;9.40;99.90
16066;DHT22;8137;48.952;8.970;2023-04-25T07:47:34;9.50;99.90
16066;DHT22;8137;48.952;8.970;2023-04-25T07:50:00;9.80;99.90
16066;DHT22;8137;48.952;8.970;2023-04-25T07:52:25;9.90;99.90
16066;DHT22;8137;48.952;8.970;2023-04-25T07:54:51;10.10;99.90
16066;DHT22;8137;48.952;8.970;2023-04-25T07:57:18;10.20;99.90
16066;DHT22;8137;48.952;8.970;2023-04-25T07:59:45;10.40;99.90
16066;DHT22;8137;48.952;8.970;2023-04-25T08:02:10;10.50;99.90
16066;DHT22;8137;48.952;8.970;2023-04-25T08:04:36;10.60;99.90
16066;DHT22;8137;48.952;8.970;2023-04-25T08:07:02;10.60;99.90
16066;DHT22;8137;48.952;8.970;2023-04-25T08:09:27;10.70;99.90
16066;DHT22;8137;48.952;8.970;2023-04-25T08:11:54;10.60;99.90
16066;DHT22;8137;48.952;8.970;2023-04-25T08:14:20;10.60;99.90
16066;DHT22;8137;48.952;8.970;2023-04-25T08:16:45;10.50;99.90
16066;DHT22;8137;48.952;8.970;2023-04-25T08:19:11;10.50;99.90
16066;DHT22;8137;48.952;8.970;2023-04-25T08:21:37;10.50;99.90
16066;DHT22;8137;48.952;8.970;2023-04-25T08:24:03;10.40;99.90
16066;DHT22;8137;48.952;8.970;2023-04-25T08:26:29;10.30;99.90
16066;DHT22;8137;48.952;8.970;2023-04-25T08:28:54;10.30;99.90
16066;DHT22;8137;48.952;8.970;2023-04-25T08:31:20;10.20;99.90
16066;DHT22;8137;48.952;8.970;2023-04-25T08:33:46;10.20;99.90
16066;DHT22;8137;48.952;8.970;2023-04-25T08:36:11;10.20;99.90
16066;DHT22;8137;48.952;8.970;2023-04-25T08:38:37;10.10;99.90
16066;DHT22;8137;48.952;8.970;2023-04-25T08:41:03;10.10;99.90
16066;DHT22;8137;48.952;8.970;2023-04-25T08:43:30;10.10;99.90
16066;DHT22;8137;48.952;8.970;2023-04-25T08:46:00;10.00;99.90
16066;DHT22;8137;48.952;8.970;2023-04-25T08:48:29;10.00;99.90
16066;DHT22;8137;48.952;8.970;2023-04-25T08:50:56;9.90;99.90
16066;DHT22;8137;48.952;8.970;2023-04-25T08:53:27;9.90;99.90
16066;DHT22;8137;48.952;8.970;2023-04-25T08:55:55;9.80;99.90
16066;DHT22;8137;48.952;8.970;2023-04-25T08:58:21;9.80;99.90
16066;DHT22;8137;48.952;8.970;2023-04-25T09:00:49;9.80;99.90
16066;DHT22;8137;48.952;8.970;2023-04-25T09:03:15;9.80;99.90
16066;DHT22;8137;48.952;8.970;2023-04-25T09:05:41;9.80;99.90
16066;DHT22;8137;48.952;8.970;2023-04-25T09:08:07;9.80;99.90
16066;DHT22;8137;48.952;8.970;2023-04-25T09:10:33;9.80;99.90
16066;DHT22;8137;48.952;8.970;2023-04-25T09:13:02;9.70;99.90
16066;DHT22;8137;48.952;8.970;2023-04-25T09:15:29;9.80;99.90
16066;DHT22;8137;48.952;8.970;2023-04-25T09:17:56;9.80;99.90
16066;DHT22;8137;48.952;8.970;2023-04-25T09:20:21;9.80;99.90
16066;DHT22;8137;48.952;8.970;2023-04-25T09:22:47;9.90;99.90
16066;DHT22;8137;48.952;8.970;2023-04-25T09:25:13;9.90;99.90
16066;DHT22;8137;48.952;8.970;2023-04-25T09:27:52;9.80;99.90
16066;DHT22;8137;48.952;8.970;2023-04-25T09:30:18;9.70;99.90
16066;DHT22;8137;48.952;8.970;2023-04-25T09:32:44;9.70;99.90
16066;DHT22;8137;48.952;8.970;2023-04-25T09:35:10;9.60;99.90
16066;DHT22;8137;48.952;8.970;2023-04-25T09:37:48;9.40;99.90
16066;DHT22;8137;48.952;8.970;2023-04-25T09:40:13;9.20;99.90
16066;DHT22;8137;48.952;8.970;2023-04-25T09:42:41;8.90;99.90
16066;DHT22;8137;48.952;8.970;2023-04-25T09:45:07;8.70;99.90
16066;DHT22;8137;48.952;8.970;2023-04-25T09:47:37;8.60;99.90
16066;DHT22;8137;48.952;8.970;2023-04-25T09:50:14;8.60;99.90
16066;DHT22;8137;48.952;8.970;2023-04-25T09:52:40;8.60;99.90
16066;DHT22;8137;48.952;8.970;2023-04-25T09:55:06;8.60;99.90
16066;DHT22;8137;48.952;8.970;2023-04-25T09:57:32;8.50;99.90
16066;DHT22;8137;48.952;8.970;2023-04-25T10:00:00;8.50;99.90
16066;DHT22;8137;48.952;8.970;2023-04-25T10:02:27;8.40;99.90
16066;DHT22;8137;48.952;8.970;2023-04-25T10:04:54;8.40;99.90
16066;DHT22;8137;48.952;8.970;2023-04-25T10:07:22;8.40;99.90
16066;DHT22;8137;48.952;8.970;2023-04-25T10:10:01;8.40;99.90
16066;DHT22;8137;48.952;8.970;2023-04-25T10:12:28;8.30;99.90
16066;DHT22;8137;48.952;8.970;2023-04-25T10:14:54;8.30;99.90
16066;DHT22;8137;48.952;8.970;2023-04-25T10:17:21;8.30;99.90
16066;DHT22;8137;48.952;8.970;2023-04-25T10:19:49;8.20;99.90
16066;DHT22;8137;48.952;8.970;2023-04-25T10:22:37;8.20;99.90
16066;DHT22;8137;48.952;8.970;2023-04-25T10:25:04;8.20;99.90
16066;DHT22;8137;48.952;8.970;2023-04-25T10:27:30;8.30;99.90
16066;DHT22;8137;48.952;8.970;2023-04-25T10:30:15;8.40;99.90
16066;DHT22;8137;48.952;8.970;2023-04-25T10:32:44;8.50;99.90
16066;DHT22;8137;48.952;8.970;2023-04-25T10:35:15;8.60;99.90
16066;DHT22;8137;48.952;8.970;2023-04-25T10:38:04;8.80;99.90
16066;DHT22;8137;48.952;8.970;2023-04-25T10:40:31;8.80;99.90
16066;DHT22;8137;48.952;8.970;2023-04-25T10:43:36;8.90;99.90
16066;DHT22;8137;48.952;8.970;2023-04-25T10:46:12;8.80;99.90
16066;DHT22;8137;48.952;8.970;2023-04-25T10:48:50;8.70;99.90
16066;DHT22;8137;48.952;8.970;2023-04-25T10:51:18;8.50;99.90
16066;DHT22;8137;48.952;8.970;2023-04-25T10:54:05;8.50;99.90
16066;DHT22;8137;48.952;8.970;2023-04-25T10:56:33;8.20;99.90
16066;DHT22;8137;48.952;8.970;2023-04-25T11:01:40;8.30;99.90
16066;DHT22;8137;48.952;8.970;2023-04-25T11:09:29;8.90;99.90
16066;DHT22;8137;48.952;8.970;2023-04-25T11:11:56;9.20;99.90
16066;DHT22;8137;48.952;8.970;2023-04-25T11:14:22;9.50;99.90
16066;DHT22;8137;48.952;8.970;2023-04-25T11:16:53;9.80;99.90
16066;DHT22;8137;48.952;8.970;2023-04-25T11:19:20;10.10;99.90
16066;DHT22;8137;48.952;8.970;2023-04-25T11:21:46;10.00;99.90
16066;DHT22;8137;48.952;8.970;2023-04-25T11:24:11;10.10;99.90
16066;DHT22;8137;48.952;8.970;2023-04-25T11:26:37;9.90;99.90
16066;DHT22;8137;48.952;8.970;2023-04-25T11:29:03;9.90;99.90
16066;DHT22;8137;48.952;8.970;2023-04-25T11:31:29;9.80;99.90
16066;DHT22;8137;48.952;8.970;2023-04-25T11:33:57;9.80;99.90
16066;DHT22;8137;48.952;8.970;2023-04-25T11:36:23;9.80;99.90
16066;DHT22;8137;48.952;8.970;2023-04-25T11:38:50;9.50;99.90
16066;DHT22;8137;48.952;8.970;2023-04-25T11:41:17;9.40;99.90
16066;DHT22;8137;48.952;8.970;2023-04-25T11:43:43;9.20;99.90
16066;DHT22;8137;48.952;8.970;2023-04-25T11:46:09;9.20;99.90
16066;DHT22;8137;48.952;8.970;2023-04-25T11:48:42;9.30;99.90
16066;DHT22;8137;48.952;8.970;2023-04-25T11:51:07;9.40;99.90
16066;DHT22;8137;48.952;8.970;2023-04-25T11:53:33;9.30;99.90
16066;DHT22;8137;48.952;8.970;2023-04-25T11:55:59;9.70;99.90
16066;DHT22;8137;48.952;8.970;2023-04-25T11:58:28;10.30;99.90
16066;DHT22;8137;48.952;8.970;2023-04-25T12:00:53;10.60;99.90
16066;DHT22;8137;48.952;8.970;2023-04-25T12:03:19;10.80;99.90
16066;DHT22;8137;48.952;8.970;2023-04-25T12:05:46;11.00;99.90
16066;DHT22;8137;48.952;8.970;2023-04-25T12:08:12;11.20;99.90
16066;DHT22;8137;48.952;8.970;2023-04-25T12:10:40;11.20;99.90
16066;DHT22;8137;48.952;8.970;2023-04-25T12:15:45;11.60;99.90
16066;DHT22;8137;48.952;8.970;2023-04-25T12:18:11;11.50;99.90
16066;DHT22;8137;48.952;8.970;2023-04-25T12:20:36;11.40;99.90
16066;DHT22;8137;48.952;8.970;2023-04-25T12:23:05;11.00;99.90
16066;DHT22;8137;48.952;8.970;2023-04-25T12:25:40;10.70;99.90
16066;DHT22;8137;48.952;8.970;2023-04-25T12:28:24;10.40;99.90
16066;DHT22;8137;48.952;8.970;2023-04-25T12:33:18;10.40;99.90
16066;DHT22;8137;48.952;8.970;2023-04-25T12:35:44;10.30;99.90
16066;DHT22;8137;48.952;8.970;2023-04-25T12:38:10;10.10;99.90
16066;DHT22;8137;48.952;8.970;2023-04-25T12:40:36;9.80;99.90
16066;DHT22;8137;48.952;8.970;2023-04-25T12:43:01;9.50;99.90
16066;DHT22;8137;48.952;8.970;2023-04-25T12:45:27;9.30;99.90
16066;DHT22;8137;48.952;8.970;2023-04-25T12:47:52;9.40;99.90
16066;DHT22;8137;48.952;8.970;2023-04-25T12:50:18;9.60;99.90
16066;DHT22;8137;48.952;8.970;2023-04-25T12:52:43;9.90;99.90
16066;DHT22;8137;48.952;8.970;2023-04-25T12:55:09;9.90;99.90
16066;DHT22;8137;48.952;8.970;2023-04-25T12:57:34;10.00;99.90
16066;DHT22;8137;48.952;8.970;2023-04-25T13:00:00;10.10;99.90
16066;DHT22;8137;48.952;8.970;2023-04-25T13:02:26;10.00;99.90
16066;DHT22;8137;48.952;8.970;2023-04-25T13:04:51;10.00;99.90
16066;DHT22;8137;48.952;8.970;2023-04-25T13:07:17;10.10;99.90
16066;DHT22;8137;48.952;8.970;2023-04-25T13:09:42;10.20;99.90
16066;DHT22;8137;48.952;8.970;2023-04-25T13:12:08;10.20;99.90
16066;DHT22;8137;48.952;8.970;2023-04-25T13:14:34;10.40;99.90
16066;DHT22;8137;48.952;8.970;2023-04-25T13:16:59;10.60;99.90
16066;DHT22;8137;48.952;8.970;2023-04-25T13:19:25;10.70;99.90
16066;DHT22;8137;48.952;8.970;2023-04-25T13:21:51;10.60;99.90
16066;DHT22;8137;48.952;8.970;2023-04-25T13:24:16;10.70;99.90
16066;DHT22;8137;48.952;8.970;2023-04-25T13:26:42;11.00;99.90
16066;DHT22;8137;48.952;8.970;2023-04-25T13:29:08;11.30;99.90
16066;DHT22;8137;48.952;8.970;2023-04-25T13:31:34;11.60;99.90
16066;DHT22;8137;48.952;8.970;2023-04-25T13:34:00;11.70;99.90
16066;DHT22;8137;48.952;8.970;2023-04-25T13:36:25;11.50;99.90
16066;DHT22;8137;48.952;8.970;2023-04-25T13:38:51;11.20;99.90
16066;DHT22;8137;48.952;8.970;2023-04-25T13:41:17;11.10;99.90
16066;DHT22;8137;48.952;8.970;2023-04-25T13:43:45;10.90;99.90
16066;DHT22;8137;48.952;8.970;2023-04-25T13:46:12;11.00;99.90
16066;DHT22;8137;48.952;8.970;2023-04-25T13:48:38;11.00;99.90
16066;DHT22;8137;48.952;8.970;2023-04-25T13:51:04;11.10;99.90
16066;DHT22;8137;48.952;8.970;2023-04-25T13:53:29;11.20;99.90
16066;DHT22;8137;48.952;8.970;2023-04-25T13:55:55;10.80;99.90
16066;DHT22;8137;48.952;8.970;2023-04-25T13:58:21;10.70;99.90
16066;DHT22;8137;48.952;8.970;2023-04-25T14:00:51;10.70;99.90
16066;DHT22;8137;48.952;8.970;2023-04-25T14:03:16;10.80;99.90
16066;DHT22;8137;48.952;8.970;2023-04-25T14:05:42;10.90;99.90
16066;DHT22;8137;48.952;8.970;2023-04-25T14:08:08;11.00;99.90
16066;DHT22;8137;48.952;8.970;2023-04-25T14:10:35;10.80;99.90
16066;DHT22;8137;48.952;8.970;2023-04-25T14:13:01;10.80;99.90
16066;DHT22;8137;48.952;8.970;2023-04-25T14:15:28;10.90;99.90
16066;DHT22;8137;48.952;8.970;2023-04-25T14:17:54;11.00;99.90
16066;DHT22;8137;48.952;8.970;2023-04-25T14:20:20;11.40;99.90
16066;DHT22;8137;48.952;8.970;2023-04-25T14:22:46;11.80;99.90
16066;DHT22;8137;48.952;8.970;2023-04-25T14:25:12;12.00;99.90
16066;DHT22;8137;48.952;8.970;2023-04-25T14:27:38;12.20;99.90
16066;DHT22;8137;48.952;8.970;2023-04-25T14:30:04;12.10;99.90
16066;DHT22;8137;48.952;8.970;2023-04-25T14:32:30;12.10;99.90
16066;DHT22;8137;48.952;8.970;2023-04-25T14:34:57;12.00;99.90
16066;DHT22;8137;48.952;8.970;2023-04-25T14:37:23;12.30;99.90
16066;DHT22;8137;48.952;8.970;2023-04-25T14:39:48;12.30;99.90
16066;DHT22;8137;48.952;8.970;2023-04-25T14:42:14;12.10;99.90
16066;DHT22;8137;48.952;8.970;2023-04-25T14:44:39;11.90;99.90
16066;DHT22;8137;48.952;8.970;2023-04-25T14:47:05;11.90;99.90
16066;DHT22;8137;48.952;8.970;2023-04-25T14:49:32;11.90;99.90
16066;DHT22;8137;48.952;8.970;2023-04-25T14:51:57;11.80;99.90
16066;DHT22;8137;48.952;8.970;2023-04-25T14:54:23;11.90;99.90
16066;DHT22;8137;48.952;8.970;2023-04-25T14:56:48;11.90;99.90
16066;DHT22;8137;48.952;8.970;2023-04-25T14:59:14;12.30;99.90
16066;DHT22;8137;48.952;8.970;2023-04-25T15:01:39;12.80;99.90
16066;DHT22;8137;48.952;8.970;2023-04-25T15:04:05;13.30;99.90
16066;DHT22;8137;48.952;8.970;2023-04-25T15:06:31;13.50;99.90
16066;DHT22;8137;48.952;8.970;2023-04-25T15:08:56;13.40;99.90
16066;DHT22;8137;48.952;8.970;2023-04-25T15:11:22;13.20;99.90
16066;DHT22;8137;48.952;8.970;2023-04-25T15:13:48;13.30;99.90
16066;DHT22;8137;48.952;8.970;2023-04-25T15:16:13;13.70;99.90
16066;DHT22;8137;48.952;8.970;2023-04-25T15:18:39;13.50;99.90
16066;DHT22;8137;48.952;8.970;2023-04-25T15:21:05;13.20;99.90
16066;DHT22;8137;48.952;8.970;2023-04-25T15:23:30;12.60;99.90
16066;DHT22;8137;48.952;8.970;2023-04-25T15:25:56;12.40;99.90
16066;DHT22;8137;48.952;8.970;2023-04-25T15:28:22;12.40;99.90
16066;DHT22;8137;48.952;8.970;2023-04-25T15:30:47;12.50;99.90
16066;DHT22;8137;48.952;8.970;2023-04-25T15:33:13;12.60;99.90
16066;DHT22;8137;48.952;8.970;2023-04-25T15:35:39;12.60;99.90
16066;DHT22;8137;48.952;8.970;2023-04-25T15:38:05;12.50;99.90
16066;DHT22;8137;48.952;8.970;2023-04-25T15:40:31;12.40;99.90
16066;DHT22;8137;48.952;8.970;2023-04-25T15:42:56;12.20;99.90
16066;DHT22;8137;48.952;8.970;2023-04-25T15:45:24;12.00;99.90
16066;DHT22;8137;48.952;8.970;2023-04-25T15:47:54;11.80;99.90
16066;DHT22;8137;48.952;8.970;2023-04-25T15:50:20;11.80;99.90
16066;DHT22;8137;48.952;8.970;2023-04-25T15:52:48;11.70;99.90
16066;DHT22;8137;48.952;8.970;2023-04-25T15:55:14;11.60;99.90
16066;DHT22;8137;48.952;8.970;2023-04-25T15:57:41;11.60;99.90
16066;DHT22;8137;48.952;8.970;2023-04-25T16:00:08;11.50;99.90
16066;DHT22;8137;48.952;8.970;2023-04-25T16:02:43;11.40;99.90